createdAt,value
2024-04-12T00:02:12.425Z,12.94
2024-04-12T00:04:41.186Z,12.98
2024-04-12T00:07:14.312Z,13.02
2024-04-12T00:09:41.834Z,13.07
2024-04-12T00:12:12.573Z,13.13
2024-04-12T00:14:44.379Z,13.18
2024-04-12T00:17:16.360Z,13.22
2024-04-12T00:19:46.116Z,13.25
2024-04-12T00:22:14.867Z,13.25
2024-04-12T00:24:43.455Z,13.25
2024-04-12T00:27:15.833Z,13.25
2024-04-12T00:29:47.610Z,13.27
2024-04-12T00:32:17.987Z,13.29
2024-04-12T00:34:48.045Z,13.32
2024-04-12T00:37:16.840Z,13.35
2024-04-12T00:39:51.223Z,13.36
2024-04-12T00:42:27.511Z,13.34
2024-04-12T00:44:58.442Z,13.35
2024-04-12T00:47:28.309Z,13.34
2024-04-12T00:50:00.700Z,13.32
2024-04-12T00:52:33.952Z,13.31
2024-04-12T00:55:11.221Z,13.28
2024-04-12T00:57:41.106Z,13.25
2024-04-12T01:00:20.039Z,13.22
2024-04-12T01:02:49.148Z,13.20
2024-04-12T01:05:19.352Z,13.20
2024-04-12T01:07:52.227Z,13.19
2024-04-12T01:10:31.382Z,13.18
2024-04-12T01:13:02.833Z,13.17
2024-04-12T01:15:36.954Z,13.11
2024-04-12T01:18:12.368Z,13.08
2024-04-12T01:20:42.040Z,13.08
2024-04-12T01:23:10.757Z,13.07
2024-04-12T01:25:39.343Z,13.04
2024-04-12T01:28:09.880Z,13.03
2024-04-12T01:30:40.647Z,13.03
2024-04-12T01:33:09.625Z,13.02
2024-04-12T01:35:37.523Z,12.99
2024-04-12T01:38:17.275Z,12.99
2024-04-12T01:40:57.198Z,12.98
2024-04-12T01:43:27.446Z,12.95
2024-04-12T01:45:55.557Z,12.94
2024-04-12T01:48:23.833Z,12.90
2024-04-12T01:50:51.896Z,12.89
2024-04-12T01:53:22.355Z,12.87
2024-04-12T01:55:51.175Z,12.88
2024-04-12T01:58:24.603Z,12.91
2024-04-12T02:00:52.660Z,12.96
2024-04-12T02:03:20.498Z,13.03
2024-04-12T02:05:50.566Z,13.11
2024-04-12T02:08:19.985Z,13.18
2024-04-12T02:10:54.195Z,13.19
2024-04-12T02:13:24.448Z,13.24
2024-04-12T02:15:55.054Z,13.31
2024-04-12T02:18:26.287Z,13.34
2024-04-12T02:20:55.622Z,13.34
2024-04-12T02:23:23.960Z,13.36
2024-04-12T02:25:52.228Z,13.39
2024-04-12T02:28:20.422Z,13.39
2024-04-12T02:30:58.157Z,13.42
2024-04-12T02:33:30.644Z,13.43
2024-04-12T02:36:12.694Z,13.44
2024-04-12T02:38:42.108Z,13.45
2024-04-12T02:41:14.671Z,13.47
2024-04-12T02:43:54.407Z,13.48
2024-04-12T02:46:24.374Z,13.53
2024-04-12T02:48:52.687Z,13.54
2024-04-12T02:51:22.788Z,13.56
2024-04-12T02:53:51.567Z,13.56
2024-04-12T02:56:24.617Z,13.54
2024-04-12T02:58:53.424Z,13.51
2024-04-12T03:01:26.611Z,13.49
2024-04-12T03:04:02.483Z,13.49
2024-04-12T03:06:34.146Z,13.49
2024-04-12T03:09:03.275Z,13.46
2024-04-12T03:11:35.193Z,13.46
2024-04-12T03:14:10.724Z,13.47
2024-04-12T03:16:47.127Z,13.50
2024-04-12T03:19:15.792Z,13.48
2024-04-12T03:21:51.055Z,13.48
2024-04-12T03:24:19.357Z,13.48
2024-04-12T03:26:48.345Z,13.50
2024-04-12T03:29:18.178Z,13.50
2024-04-12T03:31:48.705Z,13.49
2024-04-12T03:34:16.787Z,13.49
2024-04-12T03:36:45.885Z,13.47
2024-04-12T03:39:40.892Z,13.45
2024-04-12T03:42:13.002Z,13.41
2024-04-12T03:44:44.388Z,13.37
2024-04-12T03:47:14.230Z,13.32
2024-04-12T03:49:44.143Z,13.25
2024-04-12T03:52:20.185Z,13.20
2024-04-12T03:54:48.822Z,13.17
2024-04-12T03:57:18.507Z,13.14
2024-04-12T03:59:47.101Z,13.12
2024-04-12T04:02:18.992Z,13.07
2024-04-12T04:04:48.038Z,13.06
2024-04-12T04:07:17.654Z,13.07
2024-04-12T04:09:46.732Z,13.13
2024-04-12T04:12:18.536Z,13.19
2024-04-12T04:14:52.263Z,13.25
2024-04-12T04:17:29.830Z,13.29
2024-04-12T04:19:58.000Z,13.35
2024-04-12T04:22:43.033Z,13.38
2024-04-12T04:25:11.726Z,13.42
2024-04-12T04:27:39.896Z,13.44
2024-04-12T04:30:11.632Z,13.46
2024-04-12T04:32:39.456Z,13.48
2024-04-12T04:35:09.538Z,13.54
2024-04-12T04:37:41.550Z,13.63
2024-04-12T04:40:39.206Z,13.67
2024-04-12T04:43:08.513Z,13.73
2024-04-12T04:45:35.765Z,13.80
2024-04-12T04:48:03.856Z,13.88
2024-04-12T04:50:31.999Z,13.95
2024-04-12T04:53:04.008Z,14.01
2024-04-12T04:55:32.667Z,14.09
2024-04-12T04:58:01.679Z,14.16
2024-04-12T05:00:41.295Z,14.22
2024-04-12T05:03:09.350Z,14.27
2024-04-12T05:05:40.350Z,14.34
2024-04-12T05:08:09.382Z,14.43
2024-04-12T05:10:37.380Z,14.50
2024-04-12T05:13:06.878Z,14.60
2024-04-12T05:15:38.528Z,14.74
2024-04-12T05:18:07.719Z,14.91
2024-04-12T05:20:42.497Z,15.01
2024-04-12T05:23:13.172Z,15.13
2024-04-12T05:26:05.982Z,15.29
2024-04-12T05:28:34.468Z,15.47
2024-04-12T05:31:03.222Z,15.62
2024-04-12T05:33:35.172Z,15.69
2024-04-12T05:36:11.731Z,15.71
2024-04-12T05:38:41.535Z,15.85
2024-04-12T05:41:11.048Z,16.07
2024-04-12T05:43:39.638Z,16.31
2024-04-12T05:46:11.281Z,16.54
2024-04-12T05:48:40.648Z,16.79
2024-04-12T05:51:09.885Z,17.03
2024-04-12T05:53:42.604Z,17.25
2024-04-12T05:56:27.527Z,17.49
2024-04-12T05:58:58.020Z,17.70
2024-04-12T06:01:34.246Z,17.87
2024-04-12T06:04:07.718Z,18.08
2024-04-12T06:06:44.261Z,18.26
2024-04-12T06:09:22.076Z,18.47
2024-04-12T06:11:54.724Z,18.60
2024-04-12T06:14:24.676Z,18.71
2024-04-12T06:16:57.268Z,18.84
2024-04-12T06:19:25.816Z,18.96
2024-04-12T06:21:57.885Z,19.01
2024-04-12T06:24:30.002Z,19.11
2024-04-12T06:26:59.156Z,19.23
2024-04-12T06:29:38.125Z,19.36
2024-04-12T06:32:09.769Z,19.44
2024-04-12T06:34:44.790Z,19.56
2024-04-12T06:37:16.474Z,19.70
2024-04-12T06:39:45.831Z,19.91
2024-04-12T06:42:18.640Z,20.07
2024-04-12T06:44:49.974Z,20.03
2024-04-12T06:47:20.612Z,20.02
2024-04-12T06:49:51.255Z,19.96
2024-04-12T06:52:22.862Z,19.84
2024-04-12T06:54:52.679Z,19.75
2024-04-12T06:57:22.596Z,19.68
2024-04-12T06:59:54.158Z,19.59
2024-04-12T07:02:25.249Z,19.47
2024-04-12T07:05:00.931Z,19.41
2024-04-12T07:07:30.542Z,19.34
2024-04-12T07:10:00.904Z,19.30
2024-04-12T07:12:33.432Z,19.45
2024-04-12T07:15:10.504Z,19.59
2024-04-12T07:17:41.102Z,19.90
2024-04-12T07:20:16.106Z,20.21
2024-04-12T07:22:45.687Z,20.32
2024-04-12T07:25:16.210Z,20.37
2024-04-12T07:27:48.157Z,20.51
2024-04-12T07:30:18.378Z,20.60
2024-04-12T07:32:52.146Z,20.63
2024-04-12T07:35:25.752Z,20.64
2024-04-12T07:38:03.118Z,20.81
2024-04-12T07:40:35.163Z,20.87
2024-04-12T07:43:10.792Z,20.73
2024-04-12T07:45:41.202Z,20.61
2024-04-12T07:48:22.057Z,20.50
2024-04-12T07:50:54.741Z,20.44
2024-04-12T07:53:27.141Z,20.66
2024-04-12T07:56:01.294Z,20.76
2024-04-12T07:58:36.825Z,21.04
2024-04-12T08:01:11.044Z,21.29
2024-04-12T08:03:41.934Z,21.33
2024-04-12T08:06:38.547Z,21.50
2024-04-12T08:09:26.814Z,21.96
2024-04-12T08:12:02.427Z,22.24
2024-04-12T08:14:30.272Z,22.25
2024-04-12T08:17:01.767Z,22.20
2024-04-12T08:19:39.097Z,21.93
2024-04-12T08:22:08.575Z,21.57
2024-04-12T08:24:42.629Z,21.31
2024-04-12T08:27:12.557Z,21.03
2024-04-12T08:29:48.058Z,21.29
2024-04-12T08:32:28.229Z,21.88
2024-04-12T08:34:58.613Z,22.27
2024-04-12T08:37:37.747Z,22.39
2024-04-12T08:40:11.245Z,22.18
2024-04-12T08:42:41.268Z,22.26
2024-04-12T08:45:20.688Z,21.99
2024-04-12T08:48:13.863Z,21.52
2024-04-12T08:50:49.066Z,21.21
2024-04-12T08:53:29.921Z,21.04
2024-04-12T08:56:02.241Z,21.26
2024-04-12T08:58:32.705Z,21.46
2024-04-12T09:01:02.048Z,21.79
2024-04-12T09:03:36.256Z,22.22
2024-04-12T09:06:06.036Z,22.47
2024-04-12T09:08:42.466Z,22.58
2024-04-12T09:11:12.239Z,22.57
2024-04-12T09:13:42.010Z,22.48
2024-04-12T09:16:11.064Z,22.54
2024-04-12T09:18:47.240Z,22.99
2024-04-12T09:21:25.550Z,23.36
2024-04-12T09:24:10.199Z,23.81
2024-04-12T09:26:55.869Z,24.00
2024-04-12T09:29:50.633Z,23.53
2024-04-12T09:32:37.002Z,23.71
2024-04-12T09:35:13.032Z,24.23
2024-04-12T09:37:44.741Z,24.49
2024-04-12T09:40:15.126Z,24.33
2024-04-12T09:42:45.659Z,24.33
2024-04-12T09:45:23.797Z,24.25
2024-04-12T09:48:10.864Z,24.56
2024-04-12T09:50:59.932Z,24.88
2024-04-12T09:53:46.811Z,25.13
2024-04-12T09:56:34.323Z,25.15
2024-04-12T09:59:32.031Z,24.97
2024-04-12T10:02:23.103Z,24.90
2024-04-12T10:05:14.549Z,25.05
2024-04-12T10:08:08.465Z,24.97
2024-04-12T10:11:03.644Z,25.14
2024-04-12T10:13:51.711Z,25.19
2024-04-12T10:16:40.055Z,25.40
2024-04-12T10:19:30.265Z,25.41
2024-04-12T10:22:31.923Z,25.56
2024-04-12T10:25:24.132Z,25.60
2024-04-12T10:28:37.218Z,25.54
2024-04-12T10:31:31.899Z,25.42
2024-04-12T10:34:29.145Z,25.45
2024-04-12T10:37:18.290Z,25.49
2024-04-12T10:39:51.383Z,24.86
2024-04-12T10:42:27.307Z,24.96
2024-04-12T10:45:01.068Z,25.15
2024-04-12T10:47:37.814Z,24.90
2024-04-12T10:50:06.728Z,24.97
2024-04-12T10:52:35.690Z,25.37
2024-04-12T10:55:12.436Z,25.55
2024-04-12T10:57:49.300Z,25.48
2024-04-12T11:00:28.570Z,25.62
2024-04-12T11:03:07.222Z,25.74
2024-04-12T11:05:38.633Z,25.64
2024-04-12T11:08:17.172Z,25.12
2024-04-12T11:11:16.440Z,25.51
2024-04-12T11:13:47.870Z,25.68
2024-04-12T11:16:34.921Z,25.81
2024-04-12T11:19:32.621Z,25.95
2024-04-12T11:22:22.149Z,26.12
2024-04-12T11:25:08.824Z,26.25
2024-04-12T11:27:56.675Z,26.10
2024-04-12T11:30:43.902Z,25.72
2024-04-12T11:33:21.695Z,25.69
2024-04-12T11:35:55.036Z,25.78
2024-04-12T11:38:22.992Z,25.88
2024-04-12T11:40:56.466Z,25.80
2024-04-12T11:43:26.609Z,25.73
2024-04-12T11:45:54.322Z,25.65
2024-04-12T11:48:29.479Z,25.48
2024-04-12T11:51:03.263Z,25.33
2024-04-12T11:53:38.418Z,25.44
2024-04-12T11:56:06.006Z,25.60
2024-04-12T11:58:34.626Z,25.90
2024-04-12T12:01:06.484Z,26.26
2024-04-12T12:03:34.217Z,25.68
2024-04-12T12:06:06.866Z,25.40
2024-04-12T12:08:41.059Z,25.71
2024-04-12T12:11:12.982Z,25.69
2024-04-12T12:13:43.544Z,25.87
2024-04-12T12:16:16.323Z,26.19
2024-04-12T12:18:46.467Z,26.43
2024-04-12T12:21:15.910Z,26.58
2024-04-12T12:23:44.082Z,26.57
2024-04-12T12:26:15.321Z,26.19
2024-04-12T12:28:43.716Z,25.77
2024-04-12T12:31:13.860Z,25.26
2024-04-12T12:33:46.618Z,25.53
2024-04-12T12:36:17.967Z,25.81
2024-04-12T12:38:46.681Z,25.71
2024-04-12T12:41:17.364Z,25.43
2024-04-12T12:43:44.982Z,24.95
2024-04-12T12:46:14.321Z,24.69
2024-04-12T12:48:42.634Z,24.52
2024-04-12T12:51:10.948Z,24.34
2024-04-12T12:53:40.272Z,23.91
2024-04-12T12:56:07.821Z,23.94
2024-04-12T12:58:38.435Z,23.82
2024-04-12T13:01:08.058Z,23.83
2024-04-12T13:03:37.506Z,23.92
2024-04-12T13:06:07.039Z,23.87
2024-04-12T13:08:41.248Z,23.90
2024-04-12T13:11:09.649Z,24.14
2024-04-12T13:13:41.966Z,24.28
2024-04-12T13:16:12.280Z,24.30
2024-04-12T13:18:45.123Z,24.19
2024-04-12T13:21:14.873Z,24.13
2024-04-12T13:23:43.832Z,24.05
2024-04-12T13:26:23.487Z,24.01
2024-04-12T13:28:54.428Z,24.20
2024-04-12T13:31:34.579Z,24.29
2024-04-12T13:34:02.398Z,24.52
2024-04-12T13:36:32.513Z,24.83
2024-04-12T13:39:00.407Z,24.99
2024-04-12T13:41:34.561Z,25.14
2024-04-12T13:44:08.909Z,25.51
2024-04-12T13:46:54.846Z,25.61
2024-04-12T13:49:42.679Z,25.74
2024-04-12T13:52:11.028Z,25.78
2024-04-12T13:54:39.482Z,25.92
2024-04-12T13:57:10.973Z,26.22
2024-04-12T13:59:44.783Z,26.31
2024-04-12T14:02:11.784Z,26.44
2024-04-12T14:04:39.531Z,26.33
2024-04-12T14:07:09.956Z,26.52
2024-04-12T14:09:37.636Z,26.43
2024-04-12T14:12:05.434Z,26.62
2024-04-12T14:14:32.659Z,26.82
2024-04-12T14:17:00.270Z,26.95
2024-04-12T14:19:27.929Z,27.09
2024-04-12T14:21:57.724Z,26.81
2024-04-12T14:24:44.122Z,26.61
2024-04-12T14:27:13.365Z,26.28
2024-04-12T14:29:41.665Z,26.61
2024-04-12T14:32:12.109Z,26.70
2024-04-12T14:34:43.533Z,26.64
2024-04-12T14:37:14.413Z,26.73
2024-04-12T14:39:43.262Z,26.71
2024-04-12T14:42:16.713Z,26.55
2024-04-12T14:44:44.515Z,26.82
2024-04-12T14:47:12.479Z,26.69
2024-04-12T14:49:42.274Z,26.60
2024-04-12T14:52:11.906Z,26.49
2024-04-12T14:54:40.222Z,26.29
2024-04-12T14:57:08.204Z,26.27
2024-04-12T14:59:37.204Z,26.35
2024-04-12T15:02:06.435Z,26.45
2024-04-12T15:04:53.042Z,26.20
2024-04-12T15:07:39.722Z,26.45
2024-04-12T15:10:26.663Z,26.55
2024-04-12T15:13:12.272Z,26.68
2024-04-12T15:15:59.144Z,26.72
2024-04-12T15:18:47.512Z,26.71
2024-04-12T15:21:33.203Z,26.68
2024-04-12T15:24:19.950Z,26.74
2024-04-12T15:27:06.609Z,26.80
2024-04-12T15:29:53.195Z,26.90
2024-04-12T15:32:40.210Z,26.89
2024-04-12T15:35:26.501Z,26.77
2024-04-12T15:38:11.867Z,26.64
2024-04-12T15:40:58.423Z,26.11
2024-04-12T15:43:44.458Z,25.91
2024-04-12T15:46:30.453Z,25.99
2024-04-12T15:48:58.925Z,26.20
2024-04-12T15:51:30.277Z,26.44
2024-04-12T15:54:01.500Z,26.54
2024-04-12T15:56:29.258Z,26.68
2024-04-12T15:59:15.786Z,26.75
2024-04-12T16:02:01.394Z,26.81
2024-04-12T16:04:46.933Z,26.86
2024-04-12T16:07:33.094Z,26.79
2024-04-12T16:10:19.992Z,26.76
2024-04-12T16:12:47.550Z,26.58
2024-04-12T16:15:14.735Z,26.32
2024-04-12T16:17:48.990Z,25.78
2024-04-12T16:20:17.014Z,25.08
2024-04-12T16:22:44.210Z,24.62
2024-04-12T16:25:14.058Z,24.18
2024-04-12T16:27:42.129Z,23.71
2024-04-12T16:30:10.016Z,23.37
2024-04-12T16:32:37.871Z,23.04
2024-04-12T16:35:06.755Z,22.74
2024-04-12T16:37:34.429Z,22.38
2024-04-12T16:40:02.826Z,21.98
2024-04-12T16:42:30.812Z,21.80
2024-04-12T16:44:58.609Z,21.68
2024-04-12T16:47:25.788Z,21.52
2024-04-12T16:49:53.885Z,21.41
2024-04-12T16:52:21.499Z,21.32
2024-04-12T16:54:48.897Z,21.21
2024-04-12T16:57:17.198Z,21.09
2024-04-12T16:59:44.961Z,21.02
2024-04-12T17:02:14.570Z,20.95
2024-04-12T17:04:44.800Z,20.87
2024-04-12T17:07:13.835Z,20.83
2024-04-12T17:09:41.977Z,20.78
2024-04-12T17:12:09.591Z,20.70
2024-04-12T17:14:37.369Z,20.63
2024-04-12T17:17:06.851Z,20.49
2024-04-12T17:19:34.792Z,20.40
2024-04-12T17:22:02.576Z,20.31
2024-04-12T17:24:30.429Z,20.24
2024-04-12T17:26:58.463Z,20.17
2024-04-12T17:29:30.469Z,20.10
2024-04-12T17:31:59.449Z,20.02
2024-04-12T17:34:28.359Z,19.93
2024-04-12T17:36:57.696Z,19.84
2024-04-12T17:39:25.391Z,19.77
2024-04-12T17:41:54.763Z,19.66
2024-04-12T17:44:23.821Z,19.50
2024-04-12T17:46:52.550Z,19.33
2024-04-12T17:49:20.425Z,19.19
2024-04-12T17:51:49.167Z,19.06
2024-04-12T17:54:16.816Z,18.92
2024-04-12T17:56:44.920Z,18.84
2024-04-12T17:59:12.905Z,18.80
2024-04-12T18:01:42.679Z,18.75
2024-04-12T18:04:12.186Z,18.71
2024-04-12T18:06:45.525Z,18.67
2024-04-12T18:09:13.689Z,18.61
2024-04-12T18:11:42.555Z,18.57
2024-04-12T18:14:11.906Z,18.52
2024-04-12T18:16:42.957Z,18.43
2024-04-12T18:19:11.645Z,18.37
2024-04-12T18:21:39.333Z,18.35
2024-04-12T18:24:07.866Z,18.33
2024-04-12T18:26:36.567Z,18.29
2024-04-12T18:29:04.680Z,18.21
2024-04-12T18:31:33.945Z,18.10
2024-04-12T18:34:07.258Z,17.89
2024-04-12T18:36:40.106Z,17.67
2024-04-12T18:39:28.199Z,17.61
2024-04-12T18:42:13.874Z,17.58
2024-04-12T18:45:00.511Z,17.51
2024-04-12T18:47:28.842Z,17.39
2024-04-12T18:49:56.346Z,17.38
2024-04-12T18:52:25.213Z,17.40
2024-04-12T18:54:53.170Z,17.43
2024-04-12T18:57:20.865Z,17.46
2024-04-12T18:59:48.427Z,17.49
2024-04-12T19:02:16.313Z,17.52
2024-04-12T19:04:45.728Z,17.55
2024-04-12T19:07:13.776Z,17.59
2024-04-12T19:09:41.143Z,17.64
2024-04-12T19:12:10.278Z,17.68
2024-04-12T19:14:39.939Z,17.71
2024-04-12T19:17:08.840Z,17.74
2024-04-12T19:19:37.379Z,17.76
2024-04-12T19:22:07.963Z,17.77
2024-04-12T19:24:35.729Z,17.76
2024-04-12T19:27:03.066Z,17.75
2024-04-12T19:29:30.815Z,17.74
2024-04-12T19:31:58.260Z,17.71
2024-04-12T19:34:26.180Z,17.67
2024-04-12T19:36:53.749Z,17.62
2024-04-12T19:39:20.998Z,17.60
2024-04-12T19:41:48.613Z,17.57
2024-04-12T19:44:17.877Z,17.53
2024-04-12T19:46:45.149Z,17.49
2024-04-12T19:49:12.489Z,17.47
2024-04-12T19:51:40.367Z,17.45
2024-04-12T19:54:08.036Z,17.44
2024-04-12T19:56:35.636Z,17.40
2024-04-12T19:59:04.022Z,17.35
2024-04-12T20:01:31.552Z,17.33
2024-04-12T20:03:59.767Z,17.36
2024-04-12T20:06:27.490Z,17.38
2024-04-12T20:08:55.622Z,17.38
2024-04-12T20:11:23.207Z,17.35
2024-04-12T20:13:51.458Z,17.34
2024-04-12T20:16:21.149Z,17.34
2024-04-12T20:18:49.375Z,17.34
2024-04-12T20:21:17.080Z,17.34
2024-04-12T20:23:44.951Z,17.34
2024-04-12T20:26:13.425Z,17.32
2024-04-12T20:28:48.244Z,17.27
2024-04-12T20:31:37.837Z,17.21
2024-04-12T20:34:06.595Z,17.15
2024-04-12T20:36:41.919Z,17.12
2024-04-12T20:39:19.463Z,17.06
2024-04-12T20:41:57.050Z,17.00
2024-04-12T20:44:26.648Z,16.97
2024-04-12T20:46:55.391Z,16.97
2024-04-12T20:49:25.027Z,16.99
2024-04-12T20:51:53.466Z,17.03
2024-04-12T20:54:20.784Z,17.06
2024-04-12T20:56:49.791Z,17.08
2024-04-12T20:59:19.853Z,17.08
2024-04-12T21:01:50.332Z,17.08
2024-04-12T21:04:19.646Z,17.08
2024-04-12T21:06:49.184Z,17.08
2024-04-12T21:09:17.558Z,17.08
2024-04-12T21:11:45.802Z,17.06
2024-04-12T21:14:14.104Z,17.00
2024-04-12T21:16:43.675Z,16.99
2024-04-12T21:19:12.456Z,16.99
2024-04-12T21:21:40.462Z,16.97
2024-04-12T21:24:10.169Z,16.93
2024-04-12T21:26:38.090Z,16.89
2024-04-12T21:29:05.516Z,16.86
2024-04-12T21:31:33.248Z,16.86
2024-04-12T21:34:01.082Z,16.85
2024-04-12T21:36:29.472Z,16.84
2024-04-12T21:39:00.368Z,16.83
2024-04-12T21:41:27.930Z,16.82
2024-04-12T21:43:55.395Z,16.80
2024-04-12T21:46:24.897Z,16.75
2024-04-12T21:48:54.624Z,16.68
2024-04-12T21:51:24.245Z,16.63
2024-04-12T21:53:52.599Z,16.58
2024-04-12T21:56:20.670Z,16.55
2024-04-12T21:58:52.497Z,16.51
2024-04-12T22:01:21.840Z,16.47
2024-04-12T22:03:49.593Z,16.43
2024-04-12T22:06:17.471Z,16.35
2024-04-12T22:08:45.386Z,16.31
2024-04-12T22:11:15.012Z,16.30
2024-04-12T22:13:44.245Z,16.26
2024-04-12T22:16:14.221Z,16.22
2024-04-12T22:18:42.420Z,16.19
2024-04-12T22:21:15.642Z,16.15
2024-04-12T22:23:45.498Z,16.12
2024-04-12T22:26:30.835Z,16.10
2024-04-12T22:28:58.718Z,16.06
2024-04-12T22:31:28.524Z,16.02
2024-04-12T22:33:55.804Z,16.01
2024-04-12T22:36:24.006Z,15.99
2024-04-12T22:38:52.279Z,15.96
2024-04-12T22:41:21.285Z,15.93
2024-04-12T22:43:49.240Z,15.90
2024-04-12T22:46:16.963Z,15.84
2024-04-12T22:48:44.715Z,15.80
2024-04-12T22:51:23.541Z,15.75
2024-04-12T22:53:52.512Z,15.73
2024-04-12T22:56:24.347Z,15.70
2024-04-12T22:58:55.997Z,15.64
2024-04-12T23:01:28.499Z,15.61
2024-04-12T23:03:57.285Z,15.62
2024-04-12T23:06:25.891Z,15.65
2024-04-12T23:08:53.898Z,15.64
2024-04-12T23:11:22.941Z,15.62
2024-04-12T23:13:52.410Z,15.56
2024-04-12T23:16:21.354Z,15.54
2024-04-12T23:18:52.954Z,15.53
2024-04-12T23:21:21.734Z,15.53
2024-04-12T23:23:49.646Z,15.50
2024-04-12T23:26:17.722Z,15.45
2024-04-12T23:28:46.908Z,15.37
2024-04-12T23:31:14.169Z,15.31
2024-04-12T23:33:42.877Z,15.25
2024-04-12T23:36:09.984Z,15.19
2024-04-12T23:38:37.873Z,15.15
2024-04-12T23:41:05.306Z,15.10
2024-04-12T23:43:33.220Z,15.06
2024-04-12T23:46:06.491Z,15.02
2024-04-12T23:48:34.034Z,14.97
2024-04-12T23:51:01.815Z,14.93
2024-04-12T23:53:29.697Z,14.87
2024-04-12T23:55:59.760Z,14.79
2024-04-12T23:58:28.398Z,14.71
